Capt Amer — 3FCQ3 — position and weather

sailwx.info

Track history (hours):
 
Tides and Currents Weather Stations Pressure Air Temp Water Temp Dewpoint Dewpoint Depression Visibility Wind Speed Wind Dir Waves Ship Positions

Capt Amer

Last reported at 2017-Mar-23 01:06 UTC. Time now 2017-Mar-24 21:51 UTC.
Position N 39°12' E 001°37'.

Length 113 m; draft 5.1 m.

Type: Cargo ship. MMSI: 373175000.

Date/timePositionNaut miles runAvg speedWind from/ knotsBaromVisibWave heightAir tempDewpointWater temp
2017-Mar-23 01:06N 39°12' E 001°37'610.1
2017-Mar-23 00:28N 39°10' E 001°44'910.3
2017-Mar-22 23:33N 39°07' E 001°56'1010.0
2017-Mar-22 22:33N 39°03' E 002°07'10 9.8
2017-Mar-22 21:33N 38°59' E 002°19'1010.1
2017-Mar-22 20:33N 38°54' E 002°31'1110.5
2017-Mar-22 19:33N 38°50' E 002°43'1310.2
2017-Mar-22 18:15N 38°45' E 002°59'710.2
2017-Mar-22 17:31N 38°41' E 003°07'  
Track history (hours):
 
Tides and Currents Weather Stations Pressure Air Temp Water Temp Dewpoint Dewpoint Depression Visibility Wind Speed Wind Dir Waves Ship Positions

Capt Amer

Last reported at 2017-Mar-23 01:06 UTC. Time now 2017-Mar-24 21:51 UTC.
Position N 39°12' E 001°37'.

Length 113 m; draft 5.1 m.

Type: Cargo ship. MMSI: 373175000.

Date/timePositionNaut miles runAvg speedWind from/ knotsBaromVisibWave heightAir tempDewpointWater temp
2017-Mar-23 01:06N 39°12' E 001°37'610.1
2017-Mar-23 00:28N 39°10' E 001°44'910.3
2017-Mar-22 23:33N 39°07' E 001°56'1010.0
2017-Mar-22 22:33N 39°03' E 002°07'10 9.8
2017-Mar-22 21:33N 38°59' E 002°19'1010.1
2017-Mar-22 20:33N 38°54' E 002°31'1110.5
2017-Mar-22 19:33N 38°50' E 002°43'1310.2
2017-Mar-22 18:15N 38°45' E 002°59'710.2
2017-Mar-22 17:31N 38°41' E 003°07'  

Dump ship's entire track history